createdAt,value
2023-02-17T00:00:23.274Z,9.80
2023-02-17T00:02:59.958Z,10.30
2023-02-17T00:05:33.076Z,9.30
2023-02-17T00:08:05.805Z,9.50
2023-02-17T00:10:39.348Z,10.30
2023-02-17T00:13:12.133Z,9.20
2023-02-17T00:15:46.630Z,11.80
2023-02-17T00:18:20.025Z,13.10
2023-02-17T00:20:53.013Z,10.50
2023-02-17T00:23:26.158Z,8.60
2023-02-17T00:26:01.225Z,9.70
2023-02-17T00:28:34.983Z,9.10
2023-02-17T00:31:12.644Z,7.80
2023-02-17T00:33:45.710Z,10.30
2023-02-17T00:36:19.378Z,7.80
2023-02-17T00:38:53.353Z,9.60
2023-02-17T00:41:27.344Z,10.10
2023-02-17T00:44:02.571Z,17.70
2023-02-17T00:46:36.635Z,10.50
2023-02-17T00:49:09.355Z,10.20
2023-02-17T00:51:42.471Z,13.70
2023-02-17T00:54:16.469Z,14.40
2023-02-17T00:56:49.660Z,13.20
2023-02-17T00:59:22.286Z,17.20
2023-02-17T01:01:55.279Z,14.60
2023-02-17T01:04:31.494Z,18.90
2023-02-17T01:07:05.232Z,19.90
2023-02-17T01:09:38.013Z,12.90
2023-02-17T01:12:11.345Z,12.50
2023-02-17T01:14:44.872Z,13.80
2023-02-17T01:17:17.688Z,13.70
2023-02-17T01:19:50.890Z,16.80
2023-02-17T01:22:23.800Z,11.10
2023-02-17T01:24:56.583Z,12.10
2023-02-17T01:27:29.670Z,11.90
2023-02-17T01:30:02.432Z,12.40
2023-02-17T01:32:35.831Z,11.90
2023-02-17T01:35:09.502Z,11.20
2023-02-17T01:37:42.392Z,15.20
2023-02-17T01:40:17.389Z,11.20
2023-02-17T01:42:51.668Z,12.40
2023-02-17T01:45:37.107Z,12.50
2023-02-17T01:48:13.094Z,14.10
2023-02-17T01:50:50.185Z,12.70
2023-02-17T01:53:26.500Z,11.80
2023-02-17T01:55:59.815Z,18.90
2023-02-17T01:58:36.879Z,11.90
2023-02-17T02:01:10.505Z,12.50
2023-02-17T02:03:43.488Z,12.50
2023-02-17T02:06:19.523Z,12.50
2023-02-17T02:08:55.752Z,12.00
2023-02-17T02:11:28.622Z,12.50
2023-02-17T02:14:01.288Z,10.70
2023-02-17T02:16:36.724Z,9.90
2023-02-17T02:19:18.488Z,12.50
2023-02-17T02:22:22.567Z,12.80
2023-02-17T02:25:01.248Z,13.30
2023-02-17T02:27:55.084Z,10.10
2023-02-17T02:30:53.802Z,11.20
2023-02-17T02:33:40.750Z,12.10
2023-02-17T02:36:16.823Z,10.60
2023-02-17T02:38:51.669Z,15.10
2023-02-17T02:41:26.433Z,10.40
2023-02-17T02:43:59.368Z,14.20
2023-02-17T02:46:32.088Z,11.10
2023-02-17T02:49:04.863Z,15.40
2023-02-17T02:51:44.474Z,10.80
2023-02-17T02:54:37.571Z,13.50
2023-02-17T02:57:35.126Z,12.60
2023-02-17T03:00:15.045Z,14.20
2023-02-17T03:02:52.645Z,10.30
2023-02-17T03:05:30.085Z,13.20
2023-02-17T03:08:05.352Z,9.80
2023-02-17T03:10:38.370Z,17.80
2023-02-17T03:13:12.641Z,13.00
2023-02-17T03:15:45.820Z,18.30
2023-02-17T03:18:19.574Z,11.50
2023-02-17T03:20:54.976Z,15.40
2023-02-17T03:23:27.748Z,19.70
2023-02-17T03:26:01.005Z,16.20
2023-02-17T03:28:34.525Z,16.20
2023-02-17T03:31:07.529Z,14.50
2023-02-17T03:33:41.165Z,16.70
2023-02-17T03:36:14.513Z,12.40
2023-02-17T03:38:53.779Z,18.00
2023-02-17T03:41:27.027Z,16.50
2023-02-17T03:43:59.898Z,14.40
2023-02-17T03:46:33.405Z,18.90
2023-02-17T03:49:06.607Z,18.10
2023-02-17T03:51:39.808Z,13.50
2023-02-17T03:54:14.149Z,14.60
2023-02-17T03:56:47.253Z,13.00
2023-02-17T03:59:20.665Z,16.40
2023-02-17T04:01:56.983Z,20.50
2023-02-17T04:04:29.730Z,15.50
2023-02-17T04:07:03.454Z,19.70
2023-02-17T04:09:36.110Z,18.60
2023-02-17T04:12:09.829Z,15.10
2023-02-17T04:14:43.802Z,19.50
2023-02-17T04:17:16.443Z,12.60
2023-02-17T04:19:49.491Z,14.30
2023-02-17T04:22:22.282Z,13.90
2023-02-17T04:24:55.495Z,15.40
2023-02-17T04:27:29.666Z,15.90
2023-02-17T04:30:02.471Z,11.20
2023-02-17T04:32:36.982Z,11.60
2023-02-17T04:35:11.072Z,11.40
2023-02-17T04:37:43.954Z,11.90
2023-02-17T04:40:17.464Z,11.30
2023-02-17T04:42:51.221Z,11.80
2023-02-17T04:45:24.752Z,11.90
2023-02-17T04:47:57.507Z,11.60
2023-02-17T04:50:30.169Z,12.40
2023-02-17T04:53:03.292Z,10.10
2023-02-17T04:55:36.373Z,14.80
2023-02-17T04:58:09.262Z,12.00
2023-02-17T05:00:49.962Z,11.40
2023-02-17T05:03:24.707Z,10.00
2023-02-17T05:05:57.598Z,11.40
2023-02-17T05:08:30.930Z,13.60
2023-02-17T05:11:04.980Z,12.00
2023-02-17T05:13:38.082Z,12.80
2023-02-17T05:16:16.921Z,16.50
2023-02-17T05:18:49.659Z,11.90
2023-02-17T05:21:22.923Z,14.30
2023-02-17T05:23:55.819Z,14.80
2023-02-17T05:26:28.772Z,8.40
2023-02-17T05:29:01.774Z,10.40
2023-02-17T05:31:35.067Z,12.10
2023-02-17T05:34:08.084Z,13.20
2023-02-17T05:36:41.606Z,11.60
2023-02-17T05:39:14.654Z,11.60
2023-02-17T05:41:47.306Z,18.40
2023-02-17T05:44:19.993Z,15.00
2023-02-17T05:46:53.154Z,8.40
2023-02-17T05:49:26.513Z,8.30
2023-02-17T05:51:59.370Z,9.60
2023-02-17T05:54:32.233Z,10.90
2023-02-17T05:57:05.766Z,10.10
2023-02-17T05:59:38.757Z,12.00
2023-02-17T06:02:11.671Z,10.40
2023-02-17T06:04:45.539Z,14.60
2023-02-17T06:07:18.432Z,9.20
2023-02-17T06:09:53.674Z,9.70
2023-02-17T06:12:26.994Z,11.90
2023-02-17T06:15:00.639Z,8.30
2023-02-17T06:17:39.214Z,9.60
2023-02-17T06:20:15.805Z,12.60
2023-02-17T06:22:48.860Z,7.20
2023-02-17T06:25:22.232Z,12.10
2023-02-17T06:27:54.871Z,8.60
2023-02-17T06:30:28.756Z,7.30
2023-02-17T06:33:03.650Z,7.20
2023-02-17T06:35:36.375Z,8.90
2023-02-17T06:38:09.072Z,7.50
2023-02-17T06:40:41.661Z,7.30
2023-02-17T06:43:14.959Z,7.70
2023-02-17T06:45:48.212Z,7.80
2023-02-17T06:48:21.484Z,11.70
2023-02-17T06:50:56.343Z,8.60
2023-02-17T06:53:29.660Z,7.40
2023-02-17T06:56:03.118Z,7.60
2023-02-17T06:58:36.883Z,6.90
2023-02-17T07:01:19.303Z,6.10
2023-02-17T07:03:52.281Z,7.70
2023-02-17T07:06:27.953Z,6.40
2023-02-17T07:09:00.846Z,12.40
2023-02-17T07:11:34.118Z,7.60
2023-02-17T07:14:07.486Z,8.50
2023-02-17T07:16:40.910Z,11.50
2023-02-17T07:19:15.998Z,9.00
2023-02-17T07:21:48.882Z,11.30
2023-02-17T07:24:21.868Z,11.90
2023-02-17T07:26:56.370Z,9.40
2023-02-17T07:29:29.448Z,9.00
2023-02-17T07:32:02.273Z,7.50
2023-02-17T07:34:35.914Z,6.10
2023-02-17T07:37:09.300Z,7.40
2023-02-17T07:39:43.795Z,7.30
2023-02-17T07:42:19.755Z,5.50
2023-02-17T07:44:53.299Z,10.20
2023-02-17T07:47:29.132Z,9.30
2023-02-17T07:50:02.583Z,5.80
2023-02-17T07:52:35.664Z,9.90
2023-02-17T07:55:09.929Z,8.30
2023-02-17T07:57:43.034Z,9.20
2023-02-17T08:00:20.366Z,6.70
2023-02-17T08:02:53.343Z,6.20
2023-02-17T08:05:26.288Z,6.80
2023-02-17T08:08:13.569Z,6.00
2023-02-17T08:11:05.571Z,9.30
2023-02-17T08:13:40.044Z,5.60
2023-02-17T08:16:12.883Z,5.80
2023-02-17T08:18:47.403Z,10.60
2023-02-17T08:21:20.040Z,9.90
2023-02-17T08:23:53.107Z,10.00
2023-02-17T08:26:26.205Z,5.90
2023-02-17T08:29:01.780Z,8.90
2023-02-17T08:31:35.211Z,6.50
2023-02-17T08:34:09.612Z,7.30
2023-02-17T08:36:43.315Z,6.60
2023-02-17T08:39:18.001Z,6.90
2023-02-17T08:41:50.872Z,7.40
2023-02-17T08:44:24.907Z,8.00
2023-02-17T08:46:57.887Z,6.40
2023-02-17T08:49:32.967Z,7.70
2023-02-17T08:52:06.131Z,5.60
2023-02-17T08:54:39.625Z,6.70
2023-02-17T08:57:12.925Z,9.70
2023-02-17T08:59:48.413Z,6.40
2023-02-17T09:02:21.259Z,5.30
2023-02-17T09:04:54.327Z,7.90
2023-02-17T09:07:29.346Z,7.70
2023-02-17T09:10:04.052Z,6.10
2023-02-17T09:12:43.242Z,7.70
2023-02-17T09:15:16.602Z,6.30
2023-02-17T09:17:50.122Z,5.90
2023-02-17T09:20:25.361Z,8.60
2023-02-17T09:22:58.708Z,8.70
2023-02-17T09:25:31.368Z,7.20
2023-02-17T09:28:04.065Z,5.90
2023-02-17T09:30:39.837Z,6.40
2023-02-17T09:33:13.076Z,6.20
2023-02-17T09:35:46.026Z,6.20
2023-02-17T09:38:19.424Z,7.20
2023-02-17T09:40:54.831Z,7.30
2023-02-17T09:43:30.466Z,14.50
2023-02-17T09:46:07.807Z,6.10
2023-02-17T09:48:41.586Z,8.00
2023-02-17T09:51:17.751Z,6.10
2023-02-17T09:53:53.713Z,6.30
2023-02-17T09:56:33.610Z,14.80
2023-02-17T09:59:10.447Z,9.70
2023-02-17T10:01:43.623Z,12.50
2023-02-17T10:04:21.074Z,12.00
2023-02-17T10:06:55.116Z,10.00
2023-02-17T10:09:30.457Z,9.10
2023-02-17T10:12:05.591Z,9.30
2023-02-17T10:14:42.001Z,9.50
2023-02-17T10:17:17.907Z,8.00
2023-02-17T10:19:57.952Z,9.50
2023-02-17T10:22:30.811Z,7.20
2023-02-17T10:25:08.711Z,7.60
2023-02-17T10:27:43.029Z,9.20
2023-02-17T10:30:29.213Z,9.20
2023-02-17T10:33:04.827Z,12.40
2023-02-17T10:35:45.695Z,6.80
2023-02-17T10:38:20.673Z,9.40
2023-02-17T10:40:53.599Z,7.40
2023-02-17T10:43:30.891Z,8.20
2023-02-17T10:46:07.051Z,8.80
2023-02-17T10:48:42.319Z,10.40
2023-02-17T10:51:18.284Z,10.40
2023-02-17T10:53:53.165Z,8.40
2023-02-17T10:56:27.489Z,11.10
2023-02-17T10:59:03.191Z,23.40
2023-02-17T11:01:39.382Z,13.20
2023-02-17T11:04:13.946Z,12.20
2023-02-17T11:06:55.178Z,9.30
2023-02-17T11:09:33.190Z,12.10
2023-02-17T11:12:12.559Z,11.50
2023-02-17T11:14:54.714Z,9.70
2023-02-17T11:17:30.209Z,10.80
2023-02-17T11:20:05.102Z,12.00
2023-02-17T11:22:41.169Z,14.20
2023-02-17T11:25:25.761Z,11.70
2023-02-17T11:27:59.980Z,10.00
2023-02-17T11:30:33.651Z,10.10
2023-02-17T11:33:16.256Z,12.50
2023-02-17T11:35:52.208Z,12.00
2023-02-17T11:38:26.036Z,10.40
2023-02-17T11:41:00.730Z,12.80
2023-02-17T11:43:34.853Z,9.40
2023-02-17T11:46:19.690Z,17.90
2023-02-17T11:49:22.953Z,14.40
2023-02-17T11:52:01.199Z,9.10
2023-02-17T11:54:47.608Z,13.60
2023-02-17T11:57:27.019Z,15.00
2023-02-17T12:00:07.462Z,9.20
2023-02-17T12:03:12.965Z,10.80
2023-02-17T12:05:53.208Z,14.60
2023-02-17T12:08:29.638Z,12.30
2023-02-17T12:11:10.846Z,20.70
2023-02-17T12:13:48.901Z,31.80
2023-02-17T12:16:34.508Z,18.10
2023-02-17T12:19:14.786Z,18.80
2023-02-17T12:21:56.382Z,17.00
2023-02-17T12:24:40.992Z,15.50
2023-02-17T12:27:20.641Z,16.30
2023-02-17T12:30:06.179Z,18.20
2023-02-17T12:32:48.297Z,21.10
2023-02-17T12:35:23.722Z,14.10
2023-02-17T12:38:00.893Z,19.60
2023-02-17T12:40:38.041Z,16.50
2023-02-17T12:43:15.750Z,15.40
2023-02-17T12:45:49.753Z,16.50
2023-02-17T12:48:27.452Z,12.90
2023-02-17T12:51:04.791Z,17.10
2023-02-17T12:53:47.130Z,22.80
2023-02-17T12:56:55.229Z,20.30
2023-02-17T12:59:33.697Z,16.90
2023-02-17T13:02:07.505Z,18.60
2023-02-17T13:04:40.177Z,23.10
2023-02-17T13:07:46.192Z,20.40
2023-02-17T13:10:32.804Z,15.20
2023-02-17T13:13:08.067Z,19.00
2023-02-17T13:15:43.121Z,17.50
2023-02-17T13:18:28.094Z,19.00
2023-02-17T13:21:02.685Z,18.90
2023-02-17T13:23:43.826Z,14.60
2023-02-17T13:26:29.236Z,15.40
2023-02-17T13:29:23.385Z,15.40
2023-02-17T13:32:00.465Z,20.90
2023-02-17T13:34:36.445Z,18.50
2023-02-17T13:37:21.165Z,14.70
2023-02-17T13:39:54.021Z,23.60
2023-02-17T13:42:39.031Z,15.20
2023-02-17T13:45:18.021Z,21.40
2023-02-17T13:47:50.751Z,19.80
2023-02-17T13:50:35.845Z,15.70
2023-02-17T13:53:25.251Z,17.50
2023-02-17T13:55:59.761Z,19.20
2023-02-17T13:58:33.453Z,18.40
2023-02-17T14:01:08.526Z,16.00
2023-02-17T14:03:47.211Z,18.90
2023-02-17T14:06:26.314Z,15.60
2023-02-17T14:08:59.451Z,20.20
2023-02-17T14:11:36.001Z,15.00
2023-02-17T14:14:12.128Z,16.50
2023-02-17T14:16:46.784Z,20.20
2023-02-17T14:19:21.348Z,19.60
2023-02-17T14:22:02.750Z,38.50
2023-02-17T14:24:36.631Z,46.60
2023-02-17T14:27:14.389Z,54.40
2023-02-17T14:29:48.629Z,57.60
2023-02-17T14:32:32.300Z,54.40
2023-02-17T14:35:21.309Z,65.20
2023-02-17T14:37:54.478Z,51.30
2023-02-17T14:40:28.088Z,33.10
2023-02-17T14:43:02.118Z,25.50
2023-02-17T14:45:35.418Z,17.60
2023-02-17T14:48:09.812Z,11.40
2023-02-17T14:50:44.406Z,17.30
2023-02-17T14:53:23.657Z,12.40
2023-02-17T14:55:57.657Z,15.40
2023-02-17T14:58:30.413Z,11.30
2023-02-17T15:01:03.228Z,12.10
2023-02-17T15:03:37.684Z,13.50
2023-02-17T15:06:15.070Z,12.20
2023-02-17T15:08:49.468Z,15.60
2023-02-17T15:11:26.143Z,22.80
2023-02-17T15:13:59.565Z,19.00
2023-02-17T15:16:37.804Z,15.70
2023-02-17T15:19:11.976Z,18.30
2023-02-17T15:21:47.298Z,19.50
2023-02-17T15:24:40.095Z,15.60
2023-02-17T15:27:15.798Z,12.10
2023-02-17T15:29:48.852Z,10.00
2023-02-17T15:32:24.244Z,10.60
2023-02-17T15:35:03.553Z,11.00
2023-02-17T15:37:38.385Z,15.80
2023-02-17T15:40:16.609Z,17.00
2023-02-17T15:42:51.394Z,18.40
2023-02-17T15:45:25.044Z,17.10
2023-02-17T15:48:09.457Z,19.50
2023-02-17T15:50:43.962Z,18.40
2023-02-17T15:53:17.040Z,16.80
2023-02-17T15:55:49.916Z,39.50
2023-02-17T15:58:24.848Z,13.90
2023-02-17T16:01:00.631Z,12.50
2023-02-17T16:03:34.148Z,14.70
2023-02-17T16:06:08.757Z,14.30
2023-02-17T16:08:42.691Z,17.60
2023-02-17T16:11:20.752Z,18.80
2023-02-17T16:13:53.962Z,18.90
2023-02-17T16:16:28.822Z,16.90
2023-02-17T16:19:02.087Z,13.10
2023-02-17T16:21:35.645Z,18.70
2023-02-17T16:24:09.152Z,22.90
2023-02-17T16:26:44.305Z,18.60
2023-02-17T16:29:18.712Z,16.60
2023-02-17T16:31:52.469Z,19.20
2023-02-17T16:34:26.204Z,22.00
2023-02-17T16:37:00.703Z,18.90
2023-02-17T16:39:35.988Z,20.40
2023-02-17T16:42:11.054Z,20.50
2023-02-17T16:44:44.495Z,20.60
2023-02-17T16:47:22.750Z,18.70
2023-02-17T16:49:55.504Z,21.30
2023-02-17T16:52:30.478Z,19.90
2023-02-17T16:55:04.238Z,21.20
2023-02-17T16:57:37.464Z,19.20
2023-02-17T17:00:14.927Z,19.90
2023-02-17T17:02:48.248Z,17.20
2023-02-17T17:05:22.355Z,23.20
2023-02-17T17:07:56.455Z,18.10
2023-02-17T17:10:30.934Z,19.30
2023-02-17T17:13:04.126Z,23.80
2023-02-17T17:15:39.402Z,22.30
2023-02-17T17:18:19.314Z,14.70
2023-02-17T17:20:56.086Z,22.10
2023-02-17T17:23:29.151Z,16.80
2023-02-17T17:26:01.856Z,15.80
2023-02-17T17:28:38.080Z,29.30
2023-02-17T17:31:13.400Z,20.90
2023-02-17T17:33:47.389Z,22.50
2023-02-17T17:36:23.693Z,24.90
2023-02-17T17:38:56.510Z,23.00
2023-02-17T17:41:30.333Z,23.90
2023-02-17T17:44:03.743Z,20.20
2023-02-17T17:46:37.929Z,29.40
2023-02-17T17:49:11.466Z,27.70
2023-02-17T17:51:46.328Z,37.10
2023-02-17T17:54:19.420Z,33.40
2023-02-17T17:56:53.202Z,44.20
2023-02-17T17:59:27.529Z,53.30
2023-02-17T18:02:01.779Z,38.60
2023-02-17T18:04:35.431Z,51.40
2023-02-17T18:07:08.409Z,61.80
2023-02-17T18:09:42.294Z,52.70
2023-02-17T18:12:19.216Z,86.00
2023-02-17T18:14:54.841Z,80.80
2023-02-17T18:17:27.675Z,68.00
2023-02-17T18:20:00.410Z,71.80
2023-02-17T18:22:33.841Z,65.70
2023-02-17T18:25:09.338Z,73.40
2023-02-17T18:27:44.118Z,57.40
2023-02-17T18:30:23.880Z,71.40
2023-02-17T18:33:03.436Z,76.20
2023-02-17T18:35:38.927Z,56.10
2023-02-17T18:38:12.486Z,39.00
2023-02-17T18:40:46.074Z,46.80
2023-02-17T18:43:19.946Z,42.80
2023-02-17T18:45:57.221Z,50.50
2023-02-17T18:48:30.561Z,56.50
2023-02-17T18:51:08.905Z,57.30
2023-02-17T18:53:43.529Z,38.80
2023-02-17T18:56:17.032Z,29.60
2023-02-17T18:58:50.764Z,20.70
2023-02-17T19:01:24.824Z,30.10
2023-02-17T19:03:58.364Z,39.10
2023-02-17T19:06:34.648Z,48.20
2023-02-17T19:09:08.062Z,47.70
2023-02-17T19:11:41.602Z,41.70
2023-02-17T19:14:14.621Z,63.80
2023-02-17T19:16:49.069Z,79.30
2023-02-17T19:19:22.195Z,39.20
2023-02-17T19:21:55.487Z,41.60
2023-02-17T19:24:28.366Z,44.20
2023-02-17T19:27:01.789Z,44.50
2023-02-17T19:29:34.793Z,42.60
2023-02-17T19:32:08.164Z,42.30
2023-02-17T19:34:42.920Z,52.40
2023-02-17T19:37:16.039Z,43.00
2023-02-17T19:39:49.210Z,38.40
2023-02-17T19:42:22.042Z,32.30
2023-02-17T19:44:56.528Z,39.00
2023-02-17T19:47:31.122Z,39.90
2023-02-17T19:50:07.016Z,43.90
2023-02-17T19:52:41.191Z,56.50
2023-02-17T19:55:14.620Z,46.90
2023-02-17T19:57:48.048Z,42.70
2023-02-17T20:00:21.376Z,54.50
2023-02-17T20:02:54.304Z,51.70
2023-02-17T20:05:28.082Z,36.10
2023-02-17T20:08:01.220Z,46.80
2023-02-17T20:10:34.740Z,41.70
2023-02-17T20:13:07.708Z,32.60
2023-02-17T20:15:40.624Z,39.00
2023-02-17T20:18:14.127Z,35.30
2023-02-17T20:20:54.596Z,28.80
2023-02-17T20:23:29.158Z,30.00
2023-02-17T20:26:05.664Z,33.80
2023-02-17T20:28:38.761Z,33.10
2023-02-17T20:31:16.272Z,28.00
2023-02-17T20:33:49.771Z,37.80
2023-02-17T20:36:23.247Z,34.40
2023-02-17T20:38:57.478Z,36.60
2023-02-17T20:41:30.360Z,30.70
2023-02-17T20:44:05.196Z,32.30
2023-02-17T20:46:38.777Z,33.20
2023-02-17T20:49:11.675Z,31.50
2023-02-17T20:51:44.728Z,33.80
2023-02-17T20:54:18.169Z,36.30
2023-02-17T20:56:52.060Z,31.30
2023-02-17T20:59:24.854Z,29.70
2023-02-17T21:02:00.950Z,32.20
2023-02-17T21:04:39.164Z,28.90
2023-02-17T21:07:14.079Z,31.20
2023-02-17T21:09:51.291Z,35.40
2023-02-17T21:12:24.274Z,33.00
2023-02-17T21:14:57.186Z,39.50
2023-02-17T21:17:30.293Z,31.70
2023-02-17T21:20:04.224Z,31.80
2023-02-17T21:22:37.418Z,31.00
2023-02-17T21:25:11.109Z,34.40
2023-02-17T21:27:44.093Z,33.20
2023-02-17T21:30:17.911Z,40.40
2023-02-17T21:32:50.661Z,45.80
2023-02-17T21:35:23.668Z,38.40
2023-02-17T21:37:59.520Z,35.40
2023-02-17T21:40:32.442Z,36.10
2023-02-17T21:43:22.465Z,41.90
2023-02-17T21:45:56.040Z,35.70
2023-02-17T21:48:28.808Z,36.50
2023-02-17T21:51:08.879Z,35.70
2023-02-17T21:53:41.614Z,41.50
2023-02-17T21:56:15.293Z,30.70
2023-02-17T21:58:49.934Z,35.60
2023-02-17T22:01:23.045Z,32.40
2023-02-17T22:03:55.659Z,37.70
2023-02-17T22:06:30.426Z,35.50
2023-02-17T22:09:03.606Z,37.80
2023-02-17T22:11:37.755Z,38.80
2023-02-17T22:14:13.242Z,31.90
2023-02-17T22:16:46.216Z,40.30
2023-02-17T22:19:20.517Z,44.30
2023-02-17T22:21:53.646Z,33.50
2023-02-17T22:24:27.746Z,38.20
2023-02-17T22:27:00.824Z,33.40
2023-02-17T22:29:33.976Z,36.40
2023-02-17T22:32:07.204Z,41.20
2023-02-17T22:34:41.151Z,42.10
2023-02-17T22:37:14.456Z,36.60
2023-02-17T22:39:49.949Z,40.50
2023-02-17T22:42:23.156Z,35.50
2023-02-17T22:44:55.900Z,39.40
2023-02-17T22:47:28.919Z,37.20
2023-02-17T22:50:01.904Z,43.10
2023-02-17T22:52:34.988Z,48.10
2023-02-17T22:55:09.232Z,42.10
2023-02-17T22:57:43.363Z,41.70
2023-02-17T23:00:18.754Z,41.30
2023-02-17T23:02:54.022Z,40.80
2023-02-17T23:05:27.845Z,36.00
2023-02-17T23:08:01.716Z,42.50
2023-02-17T23:10:34.974Z,39.00
2023-02-17T23:13:12.918Z,34.30
2023-02-17T23:15:47.374Z,35.30
2023-02-17T23:18:20.509Z,37.90
2023-02-17T23:20:54.218Z,38.50
2023-02-17T23:23:28.186Z,35.80
2023-02-17T23:26:03.813Z,38.50
2023-02-17T23:28:38.062Z,35.80
2023-02-17T23:31:13.776Z,42.10
2023-02-17T23:33:48.139Z,40.20
2023-02-17T23:36:21.446Z,37.50
2023-02-17T23:38:55.937Z,37.40
2023-02-17T23:41:28.843Z,43.60
2023-02-17T23:44:02.447Z,40.10
2023-02-17T23:46:35.440Z,37.00
2023-02-17T23:49:08.237Z,39.30
2023-02-17T23:51:41.495Z,43.50
2023-02-17T23:54:16.840Z,44.40
2023-02-17T23:56:50.223Z,29.80
2023-02-17T23:59:23.734Z,33.00
